sensor_id;sensor_type;location;lat;lon;timestamp;P1;durP1;ratioP1;P2;durP2;ratioP2
83119;SDS011;73001;51.784;4.660;2024-02-26T00:01:26;5.02;;;5.02;;
83119;SDS011;73001;51.784;4.660;2024-02-26T00:03:52;5.18;;;5.18;;
83119;SDS011;73001;51.784;4.660;2024-02-26T00:06:18;4.98;;;4.98;;
83119;SDS011;73001;51.784;4.660;2024-02-26T00:08:44;5.07;;;5.07;;
83119;SDS011;73001;51.784;4.660;2024-02-26T00:11:10;5.22;;;5.22;;
83119;SDS011;73001;51.784;4.660;2024-02-26T00:13:35;5.31;;;5.31;;
83119;SDS011;73001;51.784;4.660;2024-02-26T00:16:01;4.72;;;4.72;;
83119;SDS011;73001;51.784;4.660;2024-02-26T00:18:28;4.85;;;4.85;;
83119;SDS011;73001;51.784;4.660;2024-02-26T00:20:53;4.95;;;4.95;;
83119;SDS011;73001;51.784;4.660;2024-02-26T00:23:19;5.03;;;5.02;;
83119;SDS011;73001;51.784;4.660;2024-02-26T00:25:44;4.97;;;4.97;;
83119;SDS011;73001;51.784;4.660;2024-02-26T00:28:10;5.21;;;5.21;;
83119;SDS011;73001;51.784;4.660;2024-02-26T00:30:35;4.75;;;4.75;;
83119;SDS011;73001;51.784;4.660;2024-02-26T00:33:01;5.19;;;5.19;;
83119;SDS011;73001;51.784;4.660;2024-02-26T00:35:27;5.05;;;5.05;;
83119;SDS011;73001;51.784;4.660;2024-02-26T00:37:52;4.90;;;4.90;;
83119;SDS011;73001;51.784;4.660;2024-02-26T00:40:18;4.87;;;4.87;;
83119;SDS011;73001;51.784;4.660;2024-02-26T00:42:43;5.13;;;5.13;;
83119;SDS011;73001;51.784;4.660;2024-02-26T00:45:11;4.84;;;4.84;;
83119;SDS011;73001;51.784;4.660;2024-02-26T00:47:37;5.09;;;5.09;;
83119;SDS011;73001;51.784;4.660;2024-02-26T00:50:03;4.91;;;4.91;;
83119;SDS011;73001;51.784;4.660;2024-02-26T00:52:29;4.74;;;4.74;;
83119;SDS011;73001;51.784;4.660;2024-02-26T00:54:54;5.05;;;5.05;;
83119;SDS011;73001;51.784;4.660;2024-02-26T00:57:19;5.01;;;5.01;;
83119;SDS011;73001;51.784;4.660;2024-02-26T00:59:45;4.88;;;4.88;;
83119;SDS011;73001;51.784;4.660;2024-02-26T01:02:10;5.02;;;5.02;;
83119;SDS011;73001;51.784;4.660;2024-02-26T01:04:36;5.15;;;5.15;;
83119;SDS011;73001;51.784;4.660;2024-02-26T01:07:01;5.10;;;5.10;;
83119;SDS011;73001;51.784;4.660;2024-02-26T01:09:27;4.70;;;4.70;;
83119;SDS011;73001;51.784;4.660;2024-02-26T01:11:52;4.90;;;4.90;;
83119;SDS011;73001;51.784;4.660;2024-02-26T01:14:18;4.51;;;4.51;;
83119;SDS011;73001;51.784;4.660;2024-02-26T01:16:43;4.70;;;4.70;;
83119;SDS011;73001;51.784;4.660;2024-02-26T01:19:09;4.85;;;4.85;;
83119;SDS011;73001;51.784;4.660;2024-02-26T01:21:34;4.81;;;4.81;;
83119;SDS011;73001;51.784;4.660;2024-02-26T01:24:00;4.88;;;4.88;;
83119;SDS011;73001;51.784;4.660;2024-02-26T01:26:25;5.12;;;5.12;;
83119;SDS011;73001;51.784;4.660;2024-02-26T01:28:50;5.03;;;5.03;;
83119;SDS011;73001;51.784;4.660;2024-02-26T01:31:16;4.75;;;4.75;;
83119;SDS011;73001;51.784;4.660;2024-02-26T01:33:41;4.87;;;4.87;;
83119;SDS011;73001;51.784;4.660;2024-02-26T01:36:07;5.14;;;5.14;;
83119;SDS011;73001;51.784;4.660;2024-02-26T01:38:32;5.14;;;5.14;;
83119;SDS011;73001;51.784;4.660;2024-02-26T01:40:58;5.05;;;5.05;;
83119;SDS011;73001;51.784;4.660;2024-02-26T01:43:23;5.30;;;5.30;;
83119;SDS011;73001;51.784;4.660;2024-02-26T01:45:48;5.24;;;5.24;;
83119;SDS011;73001;51.784;4.660;2024-02-26T01:48:14;5.08;;;5.08;;
83119;SDS011;73001;51.784;4.660;2024-02-26T01:50:40;5.02;;;5.02;;
83119;SDS011;73001;51.784;4.660;2024-02-26T01:53:06;5.47;;;5.47;;
83119;SDS011;73001;51.784;4.660;2024-02-26T01:55:33;5.47;;;5.47;;
83119;SDS011;73001;51.784;4.660;2024-02-26T01:57:59;5.13;;;5.13;;
83119;SDS011;73001;51.784;4.660;2024-02-26T02:00:25;5.48;;;5.48;;
83119;SDS011;73001;51.784;4.660;2024-02-26T02:02:50;5.27;;;5.27;;
83119;SDS011;73001;51.784;4.660;2024-02-26T02:05:17;5.14;;;5.14;;
83119;SDS011;73001;51.784;4.660;2024-02-26T02:07:46;5.72;;;5.72;;
83119;SDS011;73001;51.784;4.660;2024-02-26T02:10:13;5.41;;;5.41;;
83119;SDS011;73001;51.784;4.660;2024-02-26T02:12:40;5.66;;;5.66;;
83119;SDS011;73001;51.784;4.660;2024-02-26T02:15:06;5.50;;;5.50;;
83119;SDS011;73001;51.784;4.660;2024-02-26T02:17:32;5.91;;;5.91;;
83119;SDS011;73001;51.784;4.660;2024-02-26T02:19:57;5.77;;;5.77;;
83119;SDS011;73001;51.784;4.660;2024-02-26T02:22:23;5.88;;;5.88;;
83119;SDS011;73001;51.784;4.660;2024-02-26T02:24:49;6.13;;;6.13;;
83119;SDS011;73001;51.784;4.660;2024-02-26T02:27:14;5.98;;;5.98;;
83119;SDS011;73001;51.784;4.660;2024-02-26T02:29:40;6.75;;;6.75;;
83119;SDS011;73001;51.784;4.660;2024-02-26T02:32:07;6.97;;;6.97;;
83119;SDS011;73001;51.784;4.660;2024-02-26T02:34:33;6.90;;;6.90;;
83119;SDS011;73001;51.784;4.660;2024-02-26T02:36:59;6.69;;;6.69;;
83119;SDS011;73001;51.784;4.660;2024-02-26T02:39:25;6.41;;;6.41;;
83119;SDS011;73001;51.784;4.660;2024-02-26T02:41:50;6.77;;;6.77;;
83119;SDS011;73001;51.784;4.660;2024-02-26T02:44:16;6.65;;;6.65;;
83119;SDS011;73001;51.784;4.660;2024-02-26T02:46:41;6.74;;;6.74;;
83119;SDS011;73001;51.784;4.660;2024-02-26T02:49:11;6.89;;;6.89;;
83119;SDS011;73001;51.784;4.660;2024-02-26T02:51:36;7.14;;;7.14;;
83119;SDS011;73001;51.784;4.660;2024-02-26T02:54:02;6.70;;;6.70;;
83119;SDS011;73001;51.784;4.660;2024-02-26T02:56:28;6.78;;;6.78;;
83119;SDS011;73001;51.784;4.660;2024-02-26T02:58:53;7.20;;;7.20;;
83119;SDS011;73001;51.784;4.660;2024-02-26T03:01:18;7.24;;;7.24;;
83119;SDS011;73001;51.784;4.660;2024-02-26T03:03:44;7.37;;;7.35;;
83119;SDS011;73001;51.784;4.660;2024-02-26T03:06:10;7.18;;;7.18;;
83119;SDS011;73001;51.784;4.660;2024-02-26T03:08:35;7.78;;;7.78;;
83119;SDS011;73001;51.784;4.660;2024-02-26T03:11:04;7.21;;;7.21;;
83119;SDS011;73001;51.784;4.660;2024-02-26T03:13:30;7.72;;;7.72;;
83119;SDS011;73001;51.784;4.660;2024-02-26T03:15:55;8.07;;;8.07;;
83119;SDS011;73001;51.784;4.660;2024-02-26T03:18:22;7.65;;;7.65;;
83119;SDS011;73001;51.784;4.660;2024-02-26T03:20:47;8.03;;;8.03;;
83119;SDS011;73001;51.784;4.660;2024-02-26T03:23:14;8.25;;;8.25;;
83119;SDS011;73001;51.784;4.660;2024-02-26T03:25:44;8.37;;;8.37;;
83119;SDS011;73001;51.784;4.660;2024-02-26T03:28:11;8.36;;;8.36;;
83119;SDS011;73001;51.784;4.660;2024-02-26T03:30:37;8.37;;;8.37;;
83119;SDS011;73001;51.784;4.660;2024-02-26T03:33:03;8.60;;;8.60;;
83119;SDS011;73001;51.784;4.660;2024-02-26T03:35:28;8.55;;;8.55;;
83119;SDS011;73001;51.784;4.660;2024-02-26T03:37:54;8.26;;;8.26;;
83119;SDS011;73001;51.784;4.660;2024-02-26T03:40:19;8.43;;;8.43;;
83119;SDS011;73001;51.784;4.660;2024-02-26T03:42:45;8.39;;;8.39;;
83119;SDS011;73001;51.784;4.660;2024-02-26T03:45:11;8.60;;;8.60;;
83119;SDS011;73001;51.784;4.660;2024-02-26T03:47:37;8.47;;;8.47;;
83119;SDS011;73001;51.784;4.660;2024-02-26T03:50:05;8.66;;;8.65;;
83119;SDS011;73001;51.784;4.660;2024-02-26T03:52:31;8.71;;;8.59;;
83119;SDS011;73001;51.784;4.660;2024-02-26T03:54:57;8.52;;;8.52;;
83119;SDS011;73001;51.784;4.660;2024-02-26T03:57:23;8.82;;;8.81;;
83119;SDS011;73001;51.784;4.660;2024-02-26T03:59:48;8.95;;;8.91;;
83119;SDS011;73001;51.784;4.660;2024-02-26T04:02:14;8.85;;;8.85;;
83119;SDS011;73001;51.784;4.660;2024-02-26T04:04:39;9.15;;;9.15;;
83119;SDS011;73001;51.784;4.660;2024-02-26T04:07:05;9.00;;;8.95;;
83119;SDS011;73001;51.784;4.660;2024-02-26T04:09:31;8.77;;;8.75;;
83119;SDS011;73001;51.784;4.660;2024-02-26T04:11:56;8.68;;;8.68;;
83119;SDS011;73001;51.784;4.660;2024-02-26T04:14:22;9.14;;;9.14;;
83119;SDS011;73001;51.784;4.660;2024-02-26T04:16:47;9.28;;;9.23;;
83119;SDS011;73001;51.784;4.660;2024-02-26T04:19:16;8.80;;;8.79;;
83119;SDS011;73001;51.784;4.660;2024-02-26T04:21:42;8.99;;;8.85;;
83119;SDS011;73001;51.784;4.660;2024-02-26T04:24:07;8.98;;;8.94;;
83119;SDS011;73001;51.784;4.660;2024-02-26T04:26:33;8.82;;;8.78;;
83119;SDS011;73001;51.784;4.660;2024-02-26T04:28:58;9.00;;;8.90;;
83119;SDS011;73001;51.784;4.660;2024-02-26T04:31:24;8.96;;;8.96;;
83119;SDS011;73001;51.784;4.660;2024-02-26T04:33:49;8.71;;;8.69;;
83119;SDS011;73001;51.784;4.660;2024-02-26T04:36:15;9.07;;;9.06;;
83119;SDS011;73001;51.784;4.660;2024-02-26T04:38:42;9.37;;;9.33;;
83119;SDS011;73001;51.784;4.660;2024-02-26T04:41:08;9.73;;;9.56;;
83119;SDS011;73001;51.784;4.660;2024-02-26T04:43:33;9.04;;;8.83;;
83119;SDS011;73001;51.784;4.660;2024-02-26T04:45:58;8.46;;;8.46;;
83119;SDS011;73001;51.784;4.660;2024-02-26T04:48:24;8.77;;;8.77;;
83119;SDS011;73001;51.784;4.660;2024-02-26T04:50:49;9.02;;;9.01;;
83119;SDS011;73001;51.784;4.660;2024-02-26T04:53:15;8.28;;;8.16;;
83119;SDS011;73001;51.784;4.660;2024-02-26T04:55:40;8.59;;;8.45;;
83119;SDS011;73001;51.784;4.660;2024-02-26T04:58:06;8.68;;;8.55;;
83119;SDS011;73001;51.784;4.660;2024-02-26T05:00:31;8.47;;;8.39;;
83119;SDS011;73001;51.784;4.660;2024-02-26T05:02:56;8.43;;;8.35;;
83119;SDS011;73001;51.784;4.660;2024-02-26T05:05:22;7.79;;;7.77;;
83119;SDS011;73001;51.784;4.660;2024-02-26T05:07:47;7.86;;;7.86;;
83119;SDS011;73001;51.784;4.660;2024-02-26T05:10:13;8.69;;;8.54;;
83119;SDS011;73001;51.784;4.660;2024-02-26T05:12:38;8.31;;;8.29;;
83119;SDS011;73001;51.784;4.660;2024-02-26T05:15:04;8.42;;;8.31;;
83119;SDS011;73001;51.784;4.660;2024-02-26T05:17:29;8.14;;;8.06;;
83119;SDS011;73001;51.784;4.660;2024-02-26T05:19:55;8.40;;;8.29;;
83119;SDS011;73001;51.784;4.660;2024-02-26T05:22:20;8.32;;;8.32;;
83119;SDS011;73001;51.784;4.660;2024-02-26T05:24:46;8.70;;;8.59;;
83119;SDS011;73001;51.784;4.660;2024-02-26T05:27:11;8.53;;;8.48;;
83119;SDS011;73001;51.784;4.660;2024-02-26T05:29:37;9.03;;;8.89;;
83119;SDS011;73001;51.784;4.660;2024-02-26T05:32:03;8.62;;;8.46;;
83119;SDS011;73001;51.784;4.660;2024-02-26T05:34:30;8.70;;;8.52;;
83119;SDS011;73001;51.784;4.660;2024-02-26T05:36:55;8.70;;;8.61;;
83119;SDS011;73001;51.784;4.660;2024-02-26T05:39:21;8.33;;;8.29;;
83119;SDS011;73001;51.784;4.660;2024-02-26T05:41:46;8.75;;;8.70;;
83119;SDS011;73001;51.784;4.660;2024-02-26T05:44:12;8.55;;;8.41;;
83119;SDS011;73001;51.784;4.660;2024-02-26T05:46:37;8.77;;;8.61;;
83119;SDS011;73001;51.784;4.660;2024-02-26T05:49:03;8.78;;;8.54;;
83119;SDS011;73001;51.784;4.660;2024-02-26T05:51:28;8.60;;;8.32;;
83119;SDS011;73001;51.784;4.660;2024-02-26T05:53:54;9.11;;;8.78;;
83119;SDS011;73001;51.784;4.660;2024-02-26T05:56:22;8.80;;;8.58;;
83119;SDS011;73001;51.784;4.660;2024-02-26T05:58:48;8.54;;;8.33;;
83119;SDS011;73001;51.784;4.660;2024-02-26T06:01:15;9.00;;;8.83;;
83119;SDS011;73001;51.784;4.660;2024-02-26T06:03:42;8.46;;;8.34;;
83119;SDS011;73001;51.784;4.660;2024-02-26T06:06:07;8.72;;;8.60;;
83119;SDS011;73001;51.784;4.660;2024-02-26T06:08:32;9.13;;;8.93;;
83119;SDS011;73001;51.784;4.660;2024-02-26T06:10:58;9.00;;;8.84;;
83119;SDS011;73001;51.784;4.660;2024-02-26T06:13:24;8.11;;;7.98;;
83119;SDS011;73001;51.784;4.660;2024-02-26T06:15:49;8.60;;;8.37;;
83119;SDS011;73001;51.784;4.660;2024-02-26T06:18:14;8.66;;;8.46;;
83119;SDS011;73001;51.784;4.660;2024-02-26T06:20:41;8.61;;;8.44;;
83119;SDS011;73001;51.784;4.660;2024-02-26T06:23:07;9.07;;;8.82;;
83119;SDS011;73001;51.784;4.660;2024-02-26T06:25:32;9.02;;;8.74;;
83119;SDS011;73001;51.784;4.660;2024-02-26T06:27:58;9.75;;;9.47;;
83119;SDS011;73001;51.784;4.660;2024-02-26T06:30:23;9.54;;;9.22;;
83119;SDS011;73001;51.784;4.660;2024-02-26T06:32:49;9.92;;;9.71;;
83119;SDS011;73001;51.784;4.660;2024-02-26T06:35:14;9.59;;;9.42;;
83119;SDS011;73001;51.784;4.660;2024-02-26T06:37:39;9.48;;;9.25;;
83119;SDS011;73001;51.784;4.660;2024-02-26T06:40:05;9.60;;;9.34;;
83119;SDS011;73001;51.784;4.660;2024-02-26T06:42:32;9.57;;;9.32;;
83119;SDS011;73001;51.784;4.660;2024-02-26T06:44:58;9.44;;;9.23;;
83119;SDS011;73001;51.784;4.660;2024-02-26T06:47:23;9.33;;;9.06;;
83119;SDS011;73001;51.784;4.660;2024-02-26T06:49:49;9.11;;;8.91;;
83119;SDS011;73001;51.784;4.660;2024-02-26T06:52:14;9.46;;;9.24;;
83119;SDS011;73001;51.784;4.660;2024-02-26T06:54:39;8.77;;;8.67;;
83119;SDS011;73001;51.784;4.660;2024-02-26T06:57:05;9.01;;;8.90;;
83119;SDS011;73001;51.784;4.660;2024-02-26T06:59:30;9.14;;;8.96;;
83119;SDS011;73001;51.784;4.660;2024-02-26T07:01:56;8.97;;;8.83;;
83119;SDS011;73001;51.784;4.660;2024-02-26T07:04:21;9.29;;;9.12;;
83119;SDS011;73001;51.784;4.660;2024-02-26T07:06:47;9.20;;;9.14;;
83119;SDS011;73001;51.784;4.660;2024-02-26T07:09:13;9.45;;;9.29;;
83119;SDS011;73001;51.784;4.660;2024-02-26T07:11:38;9.91;;;9.66;;
83119;SDS011;73001;51.784;4.660;2024-02-26T07:14:07;10.12;;;9.89;;
83119;SDS011;73001;51.784;4.660;2024-02-26T07:16:33;10.54;;;10.27;;
83119;SDS011;73001;51.784;4.660;2024-02-26T07:18:59;10.54;;;10.21;;
83119;SDS011;73001;51.784;4.660;2024-02-26T07:21:24;10.56;;;10.22;;
83119;SDS011;73001;51.784;4.660;2024-02-26T07:23:50;10.45;;;10.19;;
83119;SDS011;73001;51.784;4.660;2024-02-26T07:26:15;11.67;;;11.42;;
83119;SDS011;73001;51.784;4.660;2024-02-26T07:28:42;12.73;;;12.34;;
83119;SDS011;73001;51.784;4.660;2024-02-26T07:31:07;13.40;;;12.87;;
83119;SDS011;73001;51.784;4.660;2024-02-26T07:33:33;13.35;;;12.84;;
83119;SDS011;73001;51.784;4.660;2024-02-26T07:35:58;14.50;;;13.85;;
83119;SDS011;73001;51.784;4.660;2024-02-26T07:38:24;14.25;;;13.71;;
83119;SDS011;73001;51.784;4.660;2024-02-26T07:40:49;14.53;;;13.93;;
83119;SDS011;73001;51.784;4.660;2024-02-26T07:43:15;13.91;;;13.43;;
83119;SDS011;73001;51.784;4.660;2024-02-26T07:45:40;14.52;;;13.97;;
83119;SDS011;73001;51.784;4.660;2024-02-26T07:48:06;14.55;;;14.13;;
83119;SDS011;73001;51.784;4.660;2024-02-26T07:50:32;15.57;;;14.90;;
83119;SDS011;73001;51.784;4.660;2024-02-26T07:52:57;15.63;;;14.88;;
83119;SDS011;73001;51.784;4.660;2024-02-26T07:55:23;16.66;;;15.84;;
83119;SDS011;73001;51.784;4.660;2024-02-26T07:57:49;16.16;;;15.40;;
83119;SDS011;73001;51.784;4.660;2024-02-26T08:00:14;15.76;;;15.02;;
83119;SDS011;73001;51.784;4.660;2024-02-26T08:02:42;16.65;;;15.74;;
83119;SDS011;73001;51.784;4.660;2024-02-26T08:05:09;17.21;;;16.30;;
83119;SDS011;73001;51.784;4.660;2024-02-26T08:07:34;17.49;;;16.54;;
83119;SDS011;73001;51.784;4.660;2024-02-26T08:09:59;18.33;;;17.35;;
83119;SDS011;73001;51.784;4.660;2024-02-26T08:12:25;18.55;;;17.24;;
83119;SDS011;73001;51.784;4.660;2024-02-26T08:14:51;19.50;;;18.01;;
83119;SDS011;73001;51.784;4.660;2024-02-26T08:17:16;19.95;;;18.72;;
83119;SDS011;73001;51.784;4.660;2024-02-26T08:19:41;20.45;;;19.31;;
83119;SDS011;73001;51.784;4.660;2024-02-26T08:22:07;22.07;;;20.58;;
83119;SDS011;73001;51.784;4.660;2024-02-26T08:24:33;22.07;;;20.77;;
83119;SDS011;73001;51.784;4.660;2024-02-26T08:26:58;21.82;;;20.69;;
83119;SDS011;73001;51.784;4.660;2024-02-26T08:29:23;23.09;;;21.70;;
83119;SDS011;73001;51.784;4.660;2024-02-26T08:31:49;24.04;;;22.62;;
83119;SDS011;73001;51.784;4.660;2024-02-26T08:34:15;24.29;;;22.77;;
83119;SDS011;73001;51.784;4.660;2024-02-26T08:36:40;24.47;;;23.14;;
83119;SDS011;73001;51.784;4.660;2024-02-26T08:39:08;25.78;;;24.22;;
83119;SDS011;73001;51.784;4.660;2024-02-26T08:41:34;26.43;;;24.74;;
83119;SDS011;73001;51.784;4.660;2024-02-26T08:43:59;26.98;;;25.22;;
83119;SDS011;73001;51.784;4.660;2024-02-26T08:46:25;27.08;;;25.55;;
83119;SDS011;73001;51.784;4.660;2024-02-26T08:48:50;27.20;;;25.66;;
83119;SDS011;73001;51.784;4.660;2024-02-26T08:51:15;26.68;;;25.20;;
83119;SDS011;73001;51.784;4.660;2024-02-26T08:53:42;28.72;;;26.56;;
83119;SDS011;73001;51.784;4.660;2024-02-26T08:56:07;27.43;;;25.56;;
83119;SDS011;73001;51.784;4.660;2024-02-26T08:58:32;26.75;;;25.34;;
83119;SDS011;73001;51.784;4.660;2024-02-26T09:00:58;26.66;;;25.47;;
83119;SDS011;73001;51.784;4.660;2024-02-26T09:03:23;26.36;;;25.03;;
83119;SDS011;73001;51.784;4.660;2024-02-26T09:05:49;25.47;;;24.38;;
83119;SDS011;73001;51.784;4.660;2024-02-26T09:08:14;25.47;;;24.41;;
83119;SDS011;73001;51.784;4.660;2024-02-26T09:10:40;24.55;;;23.33;;
83119;SDS011;73001;51.784;4.660;2024-02-26T09:13:06;24.46;;;23.33;;
83119;SDS011;73001;51.784;4.660;2024-02-26T09:15:32;23.54;;;22.50;;
83119;SDS011;73001;51.784;4.660;2024-02-26T09:17:57;22.56;;;21.81;;
83119;SDS011;73001;51.784;4.660;2024-02-26T09:20:23;22.53;;;21.68;;
83119;SDS011;73001;51.784;4.660;2024-02-26T09:22:49;21.72;;;20.97;;
83119;SDS011;73001;51.784;4.660;2024-02-26T09:25:15;21.27;;;20.40;;
83119;SDS011;73001;51.784;4.660;2024-02-26T09:27:42;20.08;;;19.43;;
83119;SDS011;73001;51.784;4.660;2024-02-26T09:30:08;20.09;;;19.52;;
83119;SDS011;73001;51.784;4.660;2024-02-26T09:32:38;19.06;;;18.52;;
83119;SDS011;73001;51.784;4.660;2024-02-26T09:35:04;18.03;;;17.52;;
83119;SDS011;73001;51.784;4.660;2024-02-26T09:37:33;17.96;;;17.49;;
83119;SDS011;73001;51.784;4.660;2024-02-26T09:39:59;16.69;;;16.25;;
83119;SDS011;73001;51.784;4.660;2024-02-26T09:42:25;16.32;;;15.93;;
83119;SDS011;73001;51.784;4.660;2024-02-26T09:44:51;15.65;;;15.23;;
83119;SDS011;73001;51.784;4.660;2024-02-26T09:47:20;15.21;;;14.85;;
83119;SDS011;73001;51.784;4.660;2024-02-26T09:49:47;15.41;;;15.02;;
83119;SDS011;73001;51.784;4.660;2024-02-26T09:52:16;14.85;;;14.41;;
83119;SDS011;73001;51.784;4.660;2024-02-26T09:54:42;15.46;;;15.09;;
83119;SDS011;73001;51.784;4.660;2024-02-26T09:57:12;14.82;;;14.53;;
83119;SDS011;73001;51.784;4.660;2024-02-26T09:59:42;13.86;;;13.69;;
83119;SDS011;73001;51.784;4.660;2024-02-26T10:02:12;13.88;;;13.53;;
83119;SDS011;73001;51.784;4.660;2024-02-26T10:04:39;13.84;;;13.46;;
83119;SDS011;73001;51.784;4.660;2024-02-26T10:07:12;12.83;;;12.59;;
83119;SDS011;73001;51.784;4.660;2024-02-26T10:09:38;12.91;;;12.58;;
83119;SDS011;73001;51.784;4.660;2024-02-26T10:12:05;12.93;;;12.61;;
83119;SDS011;73001;51.784;4.660;2024-02-26T10:14:35;12.32;;;11.96;;
83119;SDS011;73001;51.784;4.660;2024-02-26T10:17:01;11.86;;;11.54;;
83119;SDS011;73001;51.784;4.660;2024-02-26T10:19:27;12.18;;;11.89;;
83119;SDS011;73001;51.784;4.660;2024-02-26T10:21:58;11.68;;;11.38;;
83119;SDS011;73001;51.784;4.660;2024-02-26T10:24:26;11.26;;;10.94;;
83119;SDS011;73001;51.784;4.660;2024-02-26T10:26:52;10.88;;;10.55;;
83119;SDS011;73001;51.784;4.660;2024-02-26T10:29:19;11.17;;;10.91;;
83119;SDS011;73001;51.784;4.660;2024-02-26T10:31:46;10.57;;;10.37;;
83119;SDS011;73001;51.784;4.660;2024-02-26T10:34:11;10.50;;;10.21;;
83119;SDS011;73001;51.784;4.660;2024-02-26T10:36:38;10.19;;;9.97;;
83119;SDS011;73001;51.784;4.660;2024-02-26T10:39:06;9.93;;;9.71;;
83119;SDS011;73001;51.784;4.660;2024-02-26T10:41:35;9.53;;;9.32;;
83119;SDS011;73001;51.784;4.660;2024-02-26T10:44:00;9.75;;;9.48;;
83119;SDS011;73001;51.784;4.660;2024-02-26T10:46:26;9.32;;;9.07;;
83119;SDS011;73001;51.784;4.660;2024-02-26T10:48:52;9.78;;;9.50;;
83119;SDS011;73001;51.784;4.660;2024-02-26T10:51:20;8.84;;;8.62;;
83119;SDS011;73001;51.784;4.660;2024-02-26T10:53:51;9.40;;;9.19;;
83119;SDS011;73001;51.784;4.660;2024-02-26T10:56:24;9.31;;;9.10;;
83119;SDS011;73001;51.784;4.660;2024-02-26T10:58:52;9.24;;;9.00;;
83119;SDS011;73001;51.784;4.660;2024-02-26T11:01:18;9.30;;;9.02;;
83119;SDS011;73001;51.784;4.660;2024-02-26T11:03:46;9.46;;;9.25;;
83119;SDS011;73001;51.784;4.660;2024-02-26T11:06:15;9.15;;;8.96;;
83119;SDS011;73001;51.784;4.660;2024-02-26T11:08:42;8.56;;;8.32;;
83119;SDS011;73001;51.784;4.660;2024-02-26T11:11:08;9.41;;;9.17;;
83119;SDS011;73001;51.784;4.660;2024-02-26T11:13:34;9.34;;;9.13;;
83119;SDS011;73001;51.784;4.660;2024-02-26T11:16:04;9.15;;;8.91;;
83119;SDS011;73001;51.784;4.660;2024-02-26T11:18:32;8.95;;;8.66;;
83119;SDS011;73001;51.784;4.660;2024-02-26T11:20:59;8.90;;;8.62;;
83119;SDS011;73001;51.784;4.660;2024-02-26T11:23:28;9.17;;;8.91;;
83119;SDS011;73001;51.784;4.660;2024-02-26T11:25:54;9.22;;;9.03;;
83119;SDS011;73001;51.784;4.660;2024-02-26T11:28:24;9.21;;;9.00;;
83119;SDS011;73001;51.784;4.660;2024-02-26T11:30:54;9.36;;;9.12;;
83119;SDS011;73001;51.784;4.660;2024-02-26T11:33:22;9.12;;;8.88;;
83119;SDS011;73001;51.784;4.660;2024-02-26T11:35:47;9.55;;;9.33;;
83119;SDS011;73001;51.784;4.660;2024-02-26T11:38:17;9.19;;;9.04;;
83119;SDS011;73001;51.784;4.660;2024-02-26T11:40:46;9.46;;;9.21;;
83119;SDS011;73001;51.784;4.660;2024-02-26T11:43:13;9.05;;;8.87;;
83119;SDS011;73001;51.784;4.660;2024-02-26T11:48:04;9.18;;;8.98;;
83119;SDS011;73001;51.784;4.660;2024-02-26T11:50:40;9.40;;;9.22;;
83119;SDS011;73001;51.784;4.660;2024-02-26T11:58:59;9.46;;;9.22;;
83119;SDS011;73001;51.784;4.660;2024-02-26T12:01:39;9.57;;;9.30;;
83119;SDS011;73001;51.784;4.660;2024-02-26T12:04:13;9.22;;;9.00;;
83119;SDS011;73001;51.784;4.660;2024-02-26T12:06:43;9.73;;;9.45;;
83119;SDS011;73001;51.784;4.660;2024-02-26T12:09:40;9.56;;;9.24;;
83119;SDS011;73001;51.784;4.660;2024-02-26T12:12:08;9.63;;;9.36;;
83119;SDS011;73001;51.784;4.660;2024-02-26T12:17:04;9.57;;;9.29;;
83119;SDS011;73001;51.784;4.660;2024-02-26T12:19:34;9.32;;;9.04;;
83119;SDS011;73001;51.784;4.660;2024-02-26T12:22:01;9.34;;;9.14;;
83119;SDS011;73001;51.784;4.660;2024-02-26T12:24:26;9.55;;;9.33;;
83119;SDS011;73001;51.784;4.660;2024-02-26T12:26:52;9.46;;;9.23;;
83119;SDS011;73001;51.784;4.660;2024-02-26T12:29:17;10.09;;;9.67;;
83119;SDS011;73001;51.784;4.660;2024-02-26T12:31:42;9.82;;;9.52;;
83119;SDS011;73001;51.784;4.660;2024-02-26T12:34:09;9.62;;;9.39;;
83119;SDS011;73001;51.784;4.660;2024-02-26T12:36:35;9.42;;;9.13;;
83119;SDS011;73001;51.784;4.660;2024-02-26T12:39:04;9.63;;;9.37;;
83119;SDS011;73001;51.784;4.660;2024-02-26T12:41:34;9.50;;;9.32;;
83119;SDS011;73001;51.784;4.660;2024-02-26T12:44:00;9.71;;;9.42;;
83119;SDS011;73001;51.784;4.660;2024-02-26T12:46:26;9.95;;;9.61;;
83119;SDS011;73001;51.784;4.660;2024-02-26T12:48:52;10.16;;;9.74;;
83119;SDS011;73001;51.784;4.660;2024-02-26T12:51:22;9.78;;;9.57;;
83119;SDS011;73001;51.784;4.660;2024-02-26T12:53:48;9.31;;;9.08;;
83119;SDS011;73001;51.784;4.660;2024-02-26T12:56:17;9.92;;;9.63;;
83119;SDS011;73001;51.784;4.660;2024-02-26T12:58:43;9.90;;;9.63;;
83119;SDS011;73001;51.784;4.660;2024-02-26T13:01:15;9.23;;;9.12;;
83119;SDS011;73001;51.784;4.660;2024-02-26T13:03:43;9.84;;;9.63;;
83119;SDS011;73001;51.784;4.660;2024-02-26T13:06:10;9.45;;;9.24;;
83119;SDS011;73001;51.784;4.660;2024-02-26T13:08:36;9.95;;;9.67;;
83119;SDS011;73001;51.784;4.660;2024-02-26T13:11:02;9.50;;;9.34;;
83119;SDS011;73001;51.784;4.660;2024-02-26T13:13:27;9.36;;;9.25;;
83119;SDS011;73001;51.784;4.660;2024-02-26T13:16:03;9.48;;;9.31;;
83119;SDS011;73001;51.784;4.660;2024-02-26T13:18:29;9.35;;;9.17;;
83119;SDS011;73001;51.784;4.660;2024-02-26T13:21:12;9.38;;;9.13;;
83119;SDS011;73001;51.784;4.660;2024-02-26T13:23:40;9.17;;;8.94;;
83119;SDS011;73001;51.784;4.660;2024-02-26T13:26:07;8.79;;;8.59;;
83119;SDS011;73001;51.784;4.660;2024-02-26T13:28:34;9.15;;;8.90;;
83119;SDS011;73001;51.784;4.660;2024-02-26T13:31:00;9.45;;;9.15;;
83119;SDS011;73001;51.784;4.660;2024-02-26T13:33:29;9.08;;;8.94;;
83119;SDS011;73001;51.784;4.660;2024-02-26T13:35:56;9.07;;;8.90;;
83119;SDS011;73001;51.784;4.660;2024-02-26T13:38:23;8.71;;;8.54;;
83119;SDS011;73001;51.784;4.660;2024-02-26T13:40:49;8.91;;;8.67;;
83119;SDS011;73001;51.784;4.660;2024-02-26T13:43:15;9.05;;;8.83;;
83119;SDS011;73001;51.784;4.660;2024-02-26T13:45:41;8.18;;;8.12;;
83119;SDS011;73001;51.784;4.660;2024-02-26T13:48:09;8.72;;;8.65;;
83119;SDS011;73001;51.784;4.660;2024-02-26T13:50:36;8.73;;;8.63;;
83119;SDS011;73001;51.784;4.660;2024-02-26T13:53:03;9.50;;;9.34;;
83119;SDS011;73001;51.784;4.660;2024-02-26T13:55:29;9.48;;;9.28;;
83119;SDS011;73001;51.784;4.660;2024-02-26T13:57:57;9.27;;;9.10;;
83119;SDS011;73001;51.784;4.660;2024-02-26T14:00:25;12.11;;;11.89;;
83119;SDS011;73001;51.784;4.660;2024-02-26T14:02:50;12.19;;;11.97;;
83119;SDS011;73001;51.784;4.660;2024-02-26T14:05:16;10.12;;;9.89;;
83119;SDS011;73001;51.784;4.660;2024-02-26T14:07:42;8.67;;;8.48;;
83119;SDS011;73001;51.784;4.660;2024-02-26T14:10:13;8.97;;;8.73;;
83119;SDS011;73001;51.784;4.660;2024-02-26T14:12:39;9.41;;;9.13;;
83119;SDS011;73001;51.784;4.660;2024-02-26T14:15:08;9.87;;;9.69;;
83119;SDS011;73001;51.784;4.660;2024-02-26T14:17:35;9.83;;;9.70;;
83119;SDS011;73001;51.784;4.660;2024-02-26T14:20:01;9.82;;;9.71;;
83119;SDS011;73001;51.784;4.660;2024-02-26T14:22:28;9.44;;;9.34;;
83119;SDS011;73001;51.784;4.660;2024-02-26T14:24:55;8.83;;;8.68;;
83119;SDS011;73001;51.784;4.660;2024-02-26T14:27:21;8.83;;;8.70;;
83119;SDS011;73001;51.784;4.660;2024-02-26T14:29:47;8.88;;;8.82;;
83119;SDS011;73001;51.784;4.660;2024-02-26T14:32:13;8.59;;;8.41;;
83119;SDS011;73001;51.784;4.660;2024-02-26T14:34:40;8.41;;;8.28;;
83119;SDS011;73001;51.784;4.660;2024-02-26T14:37:06;8.36;;;8.31;;
83119;SDS011;73001;51.784;4.660;2024-02-26T14:39:31;7.78;;;7.77;;
83119;SDS011;73001;51.784;4.660;2024-02-26T14:41:58;7.68;;;7.65;;
83119;SDS011;73001;51.784;4.660;2024-02-26T14:44:24;7.82;;;7.74;;
83119;SDS011;73001;51.784;4.660;2024-02-26T14:46:49;7.65;;;7.60;;